Elkins-Randolph Co-Jennings Randolph Field
KEKN : now visible

Airfield :











YOU CAN JOIN US ON...

 
LOGIN :

Register | Disclaimer

   EN    FR    IT 

 









Legend :    VFR   Marginal VFR   IFR   Intensive IFR   Very Intensive IFR
Visi :
Ceiling :
>= 8 km
>= 3000ft
5 to 8 km
1000 to 3000 ft
1500m to 5 km
500 to 1000 ft
800 to 1500m
200 to 500 ft
< 800m
< 200 ft
Symbols :   Thunderstorms  Fog  Heavy snow  Heavy precipitations  Wind > 20 kt






- Airport Elevation : 1987 ft


KEKN - Elkins-Randolph Co-Jennings Randolph Field

CURRENT METAR :
  • 282151Z AUTO 26008KT 10SM OVC016 00/M03 A2998 RMK AO2 SLP176 T00001033

EXPIRED METARs :
  • 282051Z AUTO 27006KT 10SM BKN015 OVC035 01/M03 A2996 RMK AO2 SLP167 T00061033 55005
  • 282034Z AUTO 26006KT 10SM BKN015 OVC035 01/M03 A2996 RMK AO2 T00061033
  • 281951Z AUTO 27007KT 10SM OVC012 00/M03 A2996 RMK AO2 SLP167 T00001033

TAF KEKN
Valid from the 28 at 18:00 until the 29 at 18:00 UTC


281725Z 2818/2918 29006KT P6SM OVC011
FM290900 30002KT P6SM OVC009
FM291400 32002KT P6SM BKN011



MET'MAP, your aeronautical weather chart ! - Copyright ORBIFLY December 2007 - Disclaimer

ORBIFLY MET'MAP TEAM :

Programming & Development : Alexandra Zaïnal
Concept & original design : Baudouin d'Aumeries
Assistance for programming : Marc-Olivier Méhu
Technical & hardware support : Manuel Goepfert

Contact : metmap@orbifly.com




SOURCES & CREDITS :

   NOAA       Earth
Advisory